This is the latest recevied weather packets stored in our database for station/object DK6SC-10. If no packets are shown the sender has not sent any weather packets the latest 1 day(s).
| Time | Temp. | Humidity | Pressure | Rain* | Wind** | Luminosity | Snow |
|---|---|---|---|---|---|---|---|
| 1777740444 | 26.11° C | 14% | 980.5 hPa | - | - | - | - |
| 1777739544 | 26.11° C | 14% | 980.7 hPa | - | - | - | - |
| 1777738643 | 26.67° C | 15% | 981 hPa | - | - | - | - |
| 1777737743 | 26.67° C | 14% | 981.3 hPa | - | - | - | - |
| 1777736843 | 27.22° C | 13% | 981.4 hPa | - | - | - | - |
| 1777735943 | 27.78° C | 13% | 981.5 hPa | - | - | - | - |
| 1777735043 | 28.89° C | 12% | 981.7 hPa | - | - | - | - |
| 1777734143 | 30° C | 11% | 981.9 hPa | - | - | - | - |
| 1777733243 | 36.11° C | 8% | 982 hPa | - | - | - | - |
| 1777732343 | 37.22° C | 8% | 982.4 hPa | - | - | - | - |
| 1777731443 | 37.22° C | 8% | 982.5 hPa | - | - | - | - |
| 1777730543 | 36.11° C | 9% | 982.6 hPa | - | - | - | - |
| 1777729643 | 35.56° C | 9% | 982.9 hPa | - | - | - | - |
| 1777728743 | 35° C | 10% | 983.2 hPa | - | - | - | - |
| 1777726943 | 34.44° C | 10% | 983.4 hPa | - | - | - | - |
| 1777726043 | 33.89° C | 10% | 983.6 hPa | - | - | - | - |
| 1777725142 | 31.11° C | 13% | 983.7 hPa | - | - | - | - |
| 1777724242 | 31.67° C | 15% | 983.9 hPa | - | - | - | - |
| 1777723342 | 31.67° C | 13% | 984.2 hPa | - | - | - | - |
| 1777722442 | 31.67° C | 14% | 984.4 hPa | - | - | - | - |
| 1777721542 | 32.78° C | 14% | 984.6 hPa | - | - | - | - |
| 1777720641 | 36.11° C | 11% | 984.8 hPa | - | - | - | - |
| 1777719741 | 37.22° C | 10% | 984.9 hPa | - | - | - | - |
| 1777718841 | 35° C | 12% | 985.1 hPa | - | - | - | - |
| 1777717941 | 36.67° C | 12% | 985.3 hPa | - | - | - | - |
* Rain since midnight (hover to see other rain measurements)
** Current wind speed in m/s (hover to see current wind gust speed)